sensor_id;sensor_type;location;lat;lon;timestamp;pressure;altitude;pressure_sealevel;temperature;humidity
63663;BME280;49815;51.618;0.336;2022-12-19T00:00:32;100094.78;;;5.55;61.18
63663;BME280;49815;51.618;0.336;2022-12-19T00:02:57;100092.21;;;6.71;61.14
63663;BME280;49815;51.618;0.336;2022-12-19T00:05:22;100089.93;;;6.78;60.05
63663;BME280;49815;51.618;0.336;2022-12-19T00:07:48;100088.55;;;7.07;60.23
63663;BME280;49815;51.618;0.336;2022-12-19T00:10:13;100079.90;;;6.90;60.04
63663;BME280;49815;51.618;0.336;2022-12-19T00:12:38;100075.90;;;7.04;59.82
63663;BME280;49815;51.618;0.336;2022-12-19T00:15:05;100072.74;;;7.01;59.99
63663;BME280;49815;51.618;0.336;2022-12-19T00:17:30;100074.21;;;6.98;61.39
63663;BME280;49815;51.618;0.336;2022-12-19T00:19:55;100069.39;;;6.82;61.54
63663;BME280;49815;51.618;0.336;2022-12-19T00:22:21;100069.39;;;7.04;60.64
63663;BME280;49815;51.618;0.336;2022-12-19T00:24:47;100062.10;;;6.78;61.34
63663;BME280;49815;51.618;0.336;2022-12-19T00:27:11;100058.64;;;7.10;60.61
63663;BME280;49815;51.618;0.336;2022-12-19T00:29:37;100060.97;;;6.14;61.89
63663;BME280;49815;51.618;0.336;2022-12-19T00:32:03;100054.28;;;7.21;61.80
63663;BME280;49815;51.618;0.336;2022-12-19T00:34:28;100053.43;;;6.76;61.89
63663;BME280;49815;51.618;0.336;2022-12-19T00:36:53;100053.54;;;7.25;60.63
63663;BME280;49815;51.618;0.336;2022-12-19T00:39:20;100053.24;;;7.13;60.99
63663;BME280;49815;51.618;0.336;2022-12-19T00:41:45;100049.49;;;7.52;60.37
63663;BME280;49815;51.618;0.336;2022-12-19T00:44:12;100049.47;;;7.35;60.18
63663;BME280;49815;51.618;0.336;2022-12-19T00:46:36;100045.87;;;7.15;60.47
63663;BME280;49815;51.618;0.336;2022-12-19T00:49:03;100044.57;;;7.55;61.42
63663;BME280;49815;51.618;0.336;2022-12-19T00:51:28;100038.40;;;8.15;60.23
63663;BME280;49815;51.618;0.336;2022-12-19T00:53:54;100036.54;;;7.79;60.75
63663;BME280;49815;51.618;0.336;2022-12-19T00:56:19;100035.44;;;7.02;62.76
63663;BME280;49815;51.618;0.336;2022-12-19T00:58:44;100034.18;;;8.01;61.34
63663;BME280;49815;51.618;0.336;2022-12-19T01:01:11;100029.77;;;7.77;61.20
63663;BME280;49815;51.618;0.336;2022-12-19T01:03:34;100026.13;;;7.81;61.86
63663;BME280;49815;51.618;0.336;2022-12-19T01:05:59;100021.19;;;7.41;63.02
63663;BME280;49815;51.618;0.336;2022-12-19T01:08:25;100018.25;;;7.53;62.74
63663;BME280;49815;51.618;0.336;2022-12-19T01:10:50;100018.37;;;7.26;63.48
63663;BME280;49815;51.618;0.336;2022-12-19T01:13:18;100022.74;;;7.18;65.11
63663;BME280;49815;51.618;0.336;2022-12-19T01:15:41;100020.04;;;7.32;66.46
63663;BME280;49815;51.618;0.336;2022-12-19T01:18:06;100021.08;;;7.41;65.45
63663;BME280;49815;51.618;0.336;2022-12-19T01:20:32;100012.69;;;7.84;64.12
63663;BME280;49815;51.618;0.336;2022-12-19T01:22:57;100012.07;;;7.31;65.73
63663;BME280;49815;51.618;0.336;2022-12-19T01:25:23;100001.45;;;7.47;65.70
63663;BME280;49815;51.618;0.336;2022-12-19T01:27:49;100005.43;;;7.76;65.17
63663;BME280;49815;51.618;0.336;2022-12-19T01:30:14;100008.97;;;8.15;63.76
63663;BME280;49815;51.618;0.336;2022-12-19T01:32:39;100001.09;;;7.88;64.13
63663;BME280;49815;51.618;0.336;2022-12-19T01:35:06;100000.47;;;7.80;63.83
63663;BME280;49815;51.618;0.336;2022-12-19T01:37:30;99998.56;;;8.75;61.40
63663;BME280;49815;51.618;0.336;2022-12-19T01:39:56;99995.67;;;8.07;64.04
63663;BME280;49815;51.618;0.336;2022-12-19T01:42:21;100003.57;;;7.90;64.81
63663;BME280;49815;51.618;0.336;2022-12-19T01:45:01;99996.17;;;8.69;63.96
63663;BME280;49815;51.618;0.336;2022-12-19T01:47:12;100003.48;;;7.84;65.26
63663;BME280;49815;51.618;0.336;2022-12-19T01:49:37;99996.83;;;8.41;63.74
63663;BME280;49815;51.618;0.336;2022-12-19T01:52:06;99994.26;;;8.21;62.93
63663;BME280;49815;51.618;0.336;2022-12-19T01:54:30;99997.75;;;8.99;62.19
63663;BME280;49815;51.618;0.336;2022-12-19T01:56:56;99994.03;;;8.29;63.83
63663;BME280;49815;51.618;0.336;2022-12-19T01:59:24;99992.90;;;8.35;63.56
63663;BME280;49815;51.618;0.336;2022-12-19T02:01:44;99991.20;;;8.82;62.66
63663;BME280;49815;51.618;0.336;2022-12-19T02:04:11;99994.26;;;8.78;63.93
63663;BME280;49815;51.618;0.336;2022-12-19T02:06:37;99999.20;;;8.42;64.03
63663;BME280;49815;51.618;0.336;2022-12-19T02:09:01;99994.18;;;8.62;65.03
63663;BME280;49815;51.618;0.336;2022-12-19T02:11:26;99994.03;;;8.63;64.22
63663;BME280;49815;51.618;0.336;2022-12-19T02:13:52;99987.04;;;8.83;63.15
63663;BME280;49815;51.618;0.336;2022-12-19T02:16:26;99989.56;;;8.11;65.14
63663;BME280;49815;51.618;0.336;2022-12-19T02:18:47;99994.15;;;8.00;66.48
63663;BME280;49815;51.618;0.336;2022-12-19T02:21:17;99982.01;;;8.19;65.81
63663;BME280;49815;51.618;0.336;2022-12-19T02:26:11;99980.17;;;8.23;65.31
63663;BME280;49815;51.618;0.336;2022-12-19T02:28:34;99982.64;;;8.96;63.65
63663;BME280;49815;51.618;0.336;2022-12-19T02:30:56;99982.05;;;8.69;64.66
63663;BME280;49815;51.618;0.336;2022-12-19T02:33:21;99983.40;;;8.44;65.52
63663;BME280;49815;51.618;0.336;2022-12-19T02:35:45;99984.67;;;8.82;65.19
63663;BME280;49815;51.618;0.336;2022-12-19T02:38:11;99978.51;;;9.16;63.72
63663;BME280;49815;51.618;0.336;2022-12-19T02:40:36;99972.76;;;8.71;65.08
63663;BME280;49815;51.618;0.336;2022-12-19T02:42:59;99977.38;;;9.08;65.14
63663;BME280;49815;51.618;0.336;2022-12-19T02:45:24;99985.68;;;8.55;64.79
63663;BME280;49815;51.618;0.336;2022-12-19T02:47:48;99983.22;;;8.67;65.63
63663;BME280;49815;51.618;0.336;2022-12-19T02:50:13;99982.76;;;8.66;66.02
63663;BME280;49815;51.618;0.336;2022-12-19T02:52:46;99981.66;;;8.39;66.54
63663;BME280;49815;51.618;0.336;2022-12-19T02:55:08;99978.10;;;8.33;67.00
63663;BME280;49815;51.618;0.336;2022-12-19T02:57:32;99984.07;;;8.60;67.20
63663;BME280;49815;51.618;0.336;2022-12-19T03:00:01;99989.32;;;8.99;65.83
63663;BME280;49815;51.618;0.336;2022-12-19T03:02:26;99981.63;;;8.73;66.54
63663;BME280;49815;51.618;0.336;2022-12-19T03:04:51;99983.87;;;8.74;66.21
63663;BME280;49815;51.618;0.336;2022-12-19T03:07:24;99989.14;;;8.82;64.44
63663;BME280;49815;51.618;0.336;2022-12-19T03:09:43;99984.64;;;8.86;65.07
63663;BME280;49815;51.618;0.336;2022-12-19T03:12:06;99986.67;;;9.30;64.30
63663;BME280;49815;51.618;0.336;2022-12-19T03:14:28;99982.97;;;9.16;65.31
63663;BME280;49815;51.618;0.336;2022-12-19T03:16:52;99980.37;;;9.40;63.04
63663;BME280;49815;51.618;0.336;2022-12-19T03:19:18;99984.11;;;9.71;63.72
63663;BME280;49815;51.618;0.336;2022-12-19T03:21:45;99991.89;;;8.60;65.56
63663;BME280;49815;51.618;0.336;2022-12-19T03:24:10;99991.19;;;9.29;64.12
63663;BME280;49815;51.618;0.336;2022-12-19T03:26:37;100000.45;;;9.66;63.53
63663;BME280;49815;51.618;0.336;2022-12-19T03:29:02;99996.39;;;9.26;64.60
63663;BME280;49815;51.618;0.336;2022-12-19T03:31:28;99996.91;;;8.86;65.72
63663;BME280;49815;51.618;0.336;2022-12-19T03:33:54;99997.41;;;8.92;64.62
63663;BME280;49815;51.618;0.336;2022-12-19T03:36:20;99995.71;;;9.19;64.62
63663;BME280;49815;51.618;0.336;2022-12-19T03:38:43;100000.28;;;8.73;65.88
63663;BME280;49815;51.618;0.336;2022-12-19T03:41:08;99998.98;;;8.66;65.55
63663;BME280;49815;51.618;0.336;2022-12-19T03:43:33;99991.79;;;8.99;64.65
63663;BME280;49815;51.618;0.336;2022-12-19T03:46:01;99992.56;;;8.90;66.15
63663;BME280;49815;51.618;0.336;2022-12-19T03:48:28;99992.85;;;9.21;64.24
63663;BME280;49815;51.618;0.336;2022-12-19T03:50:55;100001.79;;;9.80;63.47
63663;BME280;49815;51.618;0.336;2022-12-19T03:53:23;100003.66;;;9.63;63.92
63663;BME280;49815;51.618;0.336;2022-12-19T03:55:43;100005.17;;;9.33;64.01
63663;BME280;49815;51.618;0.336;2022-12-19T03:58:08;99999.67;;;9.18;63.15
63663;BME280;49815;51.618;0.336;2022-12-19T04:00:30;100009.02;;;9.81;62.25
63663;BME280;49815;51.618;0.336;2022-12-19T04:02:56;100005.52;;;9.60;62.23
63663;BME280;49815;51.618;0.336;2022-12-19T04:05:22;100001.74;;;9.23;63.21
63663;BME280;49815;51.618;0.336;2022-12-19T04:07:46;100004.88;;;9.36;64.45
63663;BME280;49815;51.618;0.336;2022-12-19T04:10:15;100001.77;;;8.95;65.31
63663;BME280;49815;51.618;0.336;2022-12-19T04:12:40;100005.91;;;9.68;63.96
63663;BME280;49815;51.618;0.336;2022-12-19T04:15:04;99999.51;;;8.05;64.20
63663;BME280;49815;51.618;0.336;2022-12-19T04:17:32;100001.26;;;9.60;62.98
63663;BME280;49815;51.618;0.336;2022-12-19T04:19:58;100000.87;;;9.59;63.11
63663;BME280;49815;51.618;0.336;2022-12-19T04:22:22;100009.50;;;9.18;64.05
63663;BME280;49815;51.618;0.336;2022-12-19T04:24:45;100001.61;;;9.05;65.79
63663;BME280;49815;51.618;0.336;2022-12-19T04:27:10;99999.52;;;9.18;64.33
63663;BME280;49815;51.618;0.336;2022-12-19T04:29:36;99998.46;;;9.76;62.80
63663;BME280;49815;51.618;0.336;2022-12-19T04:32:02;99999.75;;;9.82;64.07
63663;BME280;49815;51.618;0.336;2022-12-19T04:34:25;99996.80;;;9.76;64.25
63663;BME280;49815;51.618;0.336;2022-12-19T04:36:51;99993.89;;;9.17;64.92
63663;BME280;49815;51.618;0.336;2022-12-19T04:39:16;99991.34;;;9.37;65.09
63663;BME280;49815;51.618;0.336;2022-12-19T04:41:42;99988.10;;;9.66;63.07
63663;BME280;49815;51.618;0.336;2022-12-19T04:44:07;99991.47;;;9.13;64.21
63663;BME280;49815;51.618;0.336;2022-12-19T04:46:32;99992.29;;;9.67;64.24
63663;BME280;49815;51.618;0.336;2022-12-19T04:48:58;99992.66;;;9.52;64.20
63663;BME280;49815;51.618;0.336;2022-12-19T04:51:23;99995.35;;;9.09;64.75
63663;BME280;49815;51.618;0.336;2022-12-19T04:53:49;100001.88;;;9.17;64.41
63663;BME280;49815;51.618;0.336;2022-12-19T04:56:14;99995.94;;;9.27;65.51
63663;BME280;49815;51.618;0.336;2022-12-19T04:58:39;100005.10;;;8.90;65.86
63663;BME280;49815;51.618;0.336;2022-12-19T05:01:06;100007.77;;;9.13;64.89
63663;BME280;49815;51.618;0.336;2022-12-19T05:03:30;100013.25;;;9.92;63.91
63663;BME280;49815;51.618;0.336;2022-12-19T05:06:02;100006.67;;;9.54;64.91
63663;BME280;49815;51.618;0.336;2022-12-19T05:08:21;100007.29;;;8.98;64.82
63663;BME280;49815;51.618;0.336;2022-12-19T05:10:46;100007.11;;;9.12;65.52
63663;BME280;49815;51.618;0.336;2022-12-19T05:13:11;100005.58;;;9.42;64.92
63663;BME280;49815;51.618;0.336;2022-12-19T05:15:37;99999.42;;;9.60;63.59
63663;BME280;49815;51.618;0.336;2022-12-19T05:18:02;100008.36;;;9.35;63.91
63663;BME280;49815;51.618;0.336;2022-12-19T05:20:28;100006.10;;;9.19;64.57
63663;BME280;49815;51.618;0.336;2022-12-19T05:22:53;100002.35;;;9.33;65.11
63663;BME280;49815;51.618;0.336;2022-12-19T05:25:19;100005.42;;;9.82;63.35
63663;BME280;49815;51.618;0.336;2022-12-19T05:27:44;100008.34;;;9.30;65.79
63663;BME280;49815;51.618;0.336;2022-12-19T05:30:10;100010.85;;;9.38;64.80
63663;BME280;49815;51.618;0.336;2022-12-19T05:32:35;100010.50;;;9.44;64.57
63663;BME280;49815;51.618;0.336;2022-12-19T05:35:00;100002.12;;;9.49;65.04
63663;BME280;49815;51.618;0.336;2022-12-19T05:37:26;100009.10;;;9.43;64.97
63663;BME280;49815;51.618;0.336;2022-12-19T05:39:51;100012.61;;;8.89;65.77
63663;BME280;49815;51.618;0.336;2022-12-19T05:42:16;100011.32;;;8.98;66.78
63663;BME280;49815;51.618;0.336;2022-12-19T05:44:42;100007.96;;;9.94;64.04
63663;BME280;49815;51.618;0.336;2022-12-19T05:47:07;100011.45;;;9.14;65.17
63663;BME280;49815;51.618;0.336;2022-12-19T05:49:33;100014.71;;;9.22;65.53
63663;BME280;49815;51.618;0.336;2022-12-19T05:51:58;100016.53;;;9.71;64.85
63663;BME280;49815;51.618;0.336;2022-12-19T05:54:24;100011.35;;;9.13;65.01
63663;BME280;49815;51.618;0.336;2022-12-19T05:56:49;100010.40;;;9.86;64.20
63663;BME280;49815;51.618;0.336;2022-12-19T05:59:14;100004.36;;;9.01;66.02
63663;BME280;49815;51.618;0.336;2022-12-19T06:01:39;100009.17;;;9.19;65.17
63663;BME280;49815;51.618;0.336;2022-12-19T06:04:05;100006.22;;;9.41;64.46
63663;BME280;49815;51.618;0.336;2022-12-19T06:06:30;99997.91;;;9.86;64.72
63663;BME280;49815;51.618;0.336;2022-12-19T06:08:57;100001.30;;;9.28;64.66
63663;BME280;49815;51.618;0.336;2022-12-19T06:11:21;99994.35;;;9.27;64.90
63663;BME280;49815;51.618;0.336;2022-12-19T06:13:46;99999.79;;;9.92;64.27
63663;BME280;49815;51.618;0.336;2022-12-19T06:16:14;99997.30;;;9.57;64.43
63663;BME280;49815;51.618;0.336;2022-12-19T06:18:37;99992.99;;;9.78;64.01
63663;BME280;49815;51.618;0.336;2022-12-19T06:21:05;100007.63;;;9.43;65.59
63663;BME280;49815;51.618;0.336;2022-12-19T06:23:29;100001.94;;;9.48;65.94
63663;BME280;49815;51.618;0.336;2022-12-19T06:25:55;99994.20;;;9.77;64.27
63663;BME280;49815;51.618;0.336;2022-12-19T06:28:19;99992.36;;;9.75;64.16
63663;BME280;49815;51.618;0.336;2022-12-19T06:30:44;99995.52;;;9.69;63.84
63663;BME280;49815;51.618;0.336;2022-12-19T06:33:10;99991.58;;;9.13;65.16
63663;BME280;49815;51.618;0.336;2022-12-19T06:35:35;99989.16;;;10.00;64.27
63663;BME280;49815;51.618;0.336;2022-12-19T06:38:00;99983.83;;;9.67;65.60
63663;BME280;49815;51.618;0.336;2022-12-19T06:40:26;99970.15;;;9.78;64.84
63663;BME280;49815;51.618;0.336;2022-12-19T06:42:51;99979.96;;;9.63;63.48
63663;BME280;49815;51.618;0.336;2022-12-19T06:45:16;99978.54;;;9.95;65.21
63663;BME280;49815;51.618;0.336;2022-12-19T06:47:42;99979.67;;;9.68;64.95
63663;BME280;49815;51.618;0.336;2022-12-19T06:50:07;99969.51;;;9.39;64.64
63663;BME280;49815;51.618;0.336;2022-12-19T06:52:33;99966.98;;;9.64;64.51
63663;BME280;49815;51.618;0.336;2022-12-19T06:54:58;99968.94;;;9.57;64.57
63663;BME280;49815;51.618;0.336;2022-12-19T06:57:23;99977.24;;;9.81;63.99
63663;BME280;49815;51.618;0.336;2022-12-19T06:59:49;99973.53;;;10.00;63.64
63663;BME280;49815;51.618;0.336;2022-12-19T07:02:22;99981.15;;;9.31;65.08
63663;BME280;49815;51.618;0.336;2022-12-19T07:04:42;99995.23;;;9.72;64.72
63663;BME280;49815;51.618;0.336;2022-12-19T07:07:06;99989.25;;;9.83;63.49
63663;BME280;49815;51.618;0.336;2022-12-19T07:09:31;99997.94;;;10.25;63.55
63663;BME280;49815;51.618;0.336;2022-12-19T07:11:56;99985.33;;;10.13;63.20
63663;BME280;49815;51.618;0.336;2022-12-19T07:14:21;99993.36;;;9.77;63.61
63663;BME280;49815;51.618;0.336;2022-12-19T07:16:47;99995.35;;;10.44;62.16
63663;BME280;49815;51.618;0.336;2022-12-19T07:19:12;100005.51;;;9.64;64.27
63663;BME280;49815;51.618;0.336;2022-12-19T07:21:38;100006.55;;;9.61;64.43
63663;BME280;49815;51.618;0.336;2022-12-19T07:24:04;100009.79;;;9.37;65.20
63663;BME280;49815;51.618;0.336;2022-12-19T07:26:28;100007.83;;;9.25;65.44
63663;BME280;49815;51.618;0.336;2022-12-19T07:28:53;100014.40;;;9.48;64.92
63663;BME280;49815;51.618;0.336;2022-12-19T07:31:19;100014.57;;;9.83;65.48
63663;BME280;49815;51.618;0.336;2022-12-19T07:33:44;100023.09;;;9.68;65.36
63663;BME280;49815;51.618;0.336;2022-12-19T07:36:10;100031.63;;;9.02;66.87
63663;BME280;49815;51.618;0.336;2022-12-19T07:38:35;100028.28;;;9.68;66.09
63663;BME280;49815;51.618;0.336;2022-12-19T07:41:01;100027.15;;;9.92;65.56
63663;BME280;49815;51.618;0.336;2022-12-19T07:43:26;100031.09;;;9.52;65.91
63663;BME280;49815;51.618;0.336;2022-12-19T07:45:53;100044.11;;;9.45;65.44
63663;BME280;49815;51.618;0.336;2022-12-19T07:48:16;100039.70;;;9.40;67.11
63663;BME280;49815;51.618;0.336;2022-12-19T07:50:42;100043.63;;;9.89;64.98
63663;BME280;49815;51.618;0.336;2022-12-19T07:53:07;100047.06;;;9.71;64.56
63663;BME280;49815;51.618;0.336;2022-12-19T07:55:33;100030.92;;;10.14;64.19
63663;BME280;49815;51.618;0.336;2022-12-19T07:57:58;100028.72;;;9.76;64.89
63663;BME280;49815;51.618;0.336;2022-12-19T08:00:23;100027.85;;;9.58;64.95
63663;BME280;49815;51.618;0.336;2022-12-19T08:02:49;100022.03;;;9.45;64.86
63663;BME280;49815;51.618;0.336;2022-12-19T08:05:15;100025.90;;;9.84;63.93
63663;BME280;49815;51.618;0.336;2022-12-19T08:07:39;100023.34;;;10.25;63.11
63663;BME280;49815;51.618;0.336;2022-12-19T08:10:06;100027.72;;;9.66;64.40
63663;BME280;49815;51.618;0.336;2022-12-19T08:12:31;100007.81;;;9.68;64.07
63663;BME280;49815;51.618;0.336;2022-12-19T08:14:56;100028.52;;;9.98;64.58
63663;BME280;49815;51.618;0.336;2022-12-19T08:17:21;100036.91;;;9.56;64.32
63663;BME280;49815;51.618;0.336;2022-12-19T08:19:46;100030.07;;;10.10;64.33
63663;BME280;49815;51.618;0.336;2022-12-19T08:22:12;100039.39;;;9.79;63.89
63663;BME280;49815;51.618;0.336;2022-12-19T08:24:37;100036.30;;;9.69;65.14
63663;BME280;49815;51.618;0.336;2022-12-19T08:27:03;100040.08;;;9.71;64.59
63663;BME280;49815;51.618;0.336;2022-12-19T08:29:28;100045.03;;;9.90;64.78
63663;BME280;49815;51.618;0.336;2022-12-19T08:31:54;100060.81;;;9.58;64.39
63663;BME280;49815;51.618;0.336;2022-12-19T08:34:19;100051.05;;;9.53;64.98
63663;BME280;49815;51.618;0.336;2022-12-19T08:36:44;100047.57;;;9.49;65.04
63663;BME280;49815;51.618;0.336;2022-12-19T08:39:10;100047.84;;;9.38;65.73
63663;BME280;49815;51.618;0.336;2022-12-19T08:41:35;100057.06;;;9.90;65.03
63663;BME280;49815;51.618;0.336;2022-12-19T08:44:00;100048.57;;;9.98;64.75
63663;BME280;49815;51.618;0.336;2022-12-19T08:46:26;100050.43;;;10.14;63.52
63663;BME280;49815;51.618;0.336;2022-12-19T08:48:51;100055.48;;;9.81;64.32
63663;BME280;49815;51.618;0.336;2022-12-19T08:51:17;100050.39;;;9.79;64.75
63663;BME280;49815;51.618;0.336;2022-12-19T08:53:43;100053.46;;;9.92;63.70
63663;BME280;49815;51.618;0.336;2022-12-19T08:56:10;100048.83;;;10.00;63.78
63663;BME280;49815;51.618;0.336;2022-12-19T08:58:32;100056.45;;;9.58;65.35
63663;BME280;49815;51.618;0.336;2022-12-19T09:00:59;100045.40;;;10.26;63.19
63663;BME280;49815;51.618;0.336;2022-12-19T09:03:23;100051.84;;;9.69;63.93
63663;BME280;49815;51.618;0.336;2022-12-19T09:05:54;100043.22;;;9.18;65.54
63663;BME280;49815;51.618;0.336;2022-12-19T09:08:13;100042.82;;;9.67;65.95
63663;BME280;49815;51.618;0.336;2022-12-19T09:10:39;100038.34;;;9.86;64.65
63663;BME280;49815;51.618;0.336;2022-12-19T09:13:05;100042.52;;;9.77;65.46
63663;BME280;49815;51.618;0.336;2022-12-19T09:15:30;100032.04;;;10.00;63.98
63663;BME280;49815;51.618;0.336;2022-12-19T09:17:55;100036.92;;;10.13;63.44
63663;BME280;49815;51.618;0.336;2022-12-19T09:20:21;100040.30;;;10.05;63.23
63663;BME280;49815;51.618;0.336;2022-12-19T09:22:46;100034.84;;;10.82;62.73
63663;BME280;49815;51.618;0.336;2022-12-19T09:25:11;100046.74;;;9.64;64.37
63663;BME280;49815;51.618;0.336;2022-12-19T09:27:37;100043.58;;;10.01;62.71
63663;BME280;49815;51.618;0.336;2022-12-19T09:30:03;100047.97;;;10.35;62.96
63663;BME280;49815;51.618;0.336;2022-12-19T09:32:27;100045.83;;;10.22;62.20
63663;BME280;49815;51.618;0.336;2022-12-19T09:34:53;100057.11;;;9.42;63.93
63663;BME280;49815;51.618;0.336;2022-12-19T09:37:18;100049.38;;;9.65;64.92
63663;BME280;49815;51.618;0.336;2022-12-19T09:39:44;100039.81;;;10.23;63.81
63663;BME280;49815;51.618;0.336;2022-12-19T09:42:20;100051.12;;;9.93;63.75
63663;BME280;49815;51.618;0.336;2022-12-19T09:44:48;100044.22;;;10.24;63.46
63663;BME280;49815;51.618;0.336;2022-12-19T09:47:02;100045.46;;;10.32;62.75
63663;BME280;49815;51.618;0.336;2022-12-19T09:49:28;100054.13;;;10.16;63.22
63663;BME280;49815;51.618;0.336;2022-12-19T09:51:57;100054.30;;;10.22;63.49
63663;BME280;49815;51.618;0.336;2022-12-19T09:54:19;100048.47;;;10.75;61.87
63663;BME280;49815;51.618;0.336;2022-12-19T09:56:43;100056.95;;;9.85;63.27
63663;BME280;49815;51.618;0.336;2022-12-19T09:59:15;100054.36;;;10.20;63.17
63663;BME280;49815;51.618;0.336;2022-12-19T10:01:37;100054.80;;;10.63;62.23
63663;BME280;49815;51.618;0.336;2022-12-19T10:04:01;100061.84;;;10.15;63.11
63663;BME280;49815;51.618;0.336;2022-12-19T10:06:23;100067.31;;;9.57;64.83
63663;BME280;49815;51.618;0.336;2022-12-19T10:08:49;100077.39;;;9.75;64.57
63663;BME280;49815;51.618;0.336;2022-12-19T10:11:26;100069.92;;;10.31;63.77
63663;BME280;49815;51.618;0.336;2022-12-19T10:13:51;100067.68;;;10.60;61.91
63663;BME280;49815;51.618;0.336;2022-12-19T10:16:11;100082.67;;;10.35;63.04
63663;BME280;49815;51.618;0.336;2022-12-19T10:18:38;100076.23;;;9.42;65.05
63663;BME280;49815;51.618;0.336;2022-12-19T10:21:00;100077.86;;;9.81;64.45
63663;BME280;49815;51.618;0.336;2022-12-19T10:25:50;100073.91;;;10.05;65.26
63663;BME280;49815;51.618;0.336;2022-12-19T10:28:24;100072.86;;;9.99;64.59
63663;BME280;49815;51.618;0.336;2022-12-19T10:30:40;100068.89;;;10.14;64.13
63663;BME280;49815;51.618;0.336;2022-12-19T10:33:11;100068.73;;;10.43;63.92
63663;BME280;49815;51.618;0.336;2022-12-19T10:35:31;100067.18;;;10.36;63.56
63663;BME280;49815;51.618;0.336;2022-12-19T10:37:59;100066.07;;;10.02;64.30
63663;BME280;49815;51.618;0.336;2022-12-19T10:40:24;100065.19;;;10.26;63.95
63663;BME280;49815;51.618;0.336;2022-12-19T10:42:49;100068.42;;;10.60;63.64
63663;BME280;49815;51.618;0.336;2022-12-19T10:45:13;100068.83;;;10.21;64.01
63663;BME280;49815;51.618;0.336;2022-12-19T10:47:34;100067.96;;;9.81;64.72
63663;BME280;49815;51.618;0.336;2022-12-19T10:49:59;100080.31;;;9.62;65.17
63663;BME280;49815;51.618;0.336;2022-12-19T10:54:50;100083.30;;;10.16;64.63
63663;BME280;49815;51.618;0.336;2022-12-19T10:57:18;100083.23;;;9.46;65.63
63663;BME280;49815;51.618;0.336;2022-12-19T11:02:11;100075.83;;;10.07;64.07
63663;BME280;49815;51.618;0.336;2022-12-19T11:04:33;100076.49;;;9.94;64.98
63663;BME280;49815;51.618;0.336;2022-12-19T11:07:16;100080.46;;;10.11;64.47
63663;BME280;49815;51.618;0.336;2022-12-19T11:09:25;100061.96;;;9.87;63.69
63663;BME280;49815;51.618;0.336;2022-12-19T11:11:54;100069.26;;;10.05;64.88
63663;BME280;49815;51.618;0.336;2022-12-19T11:14:21;100071.72;;;9.98;65.11
63663;BME280;49815;51.618;0.336;2022-12-19T11:16:38;100068.62;;;9.16;65.74
63663;BME280;49815;51.618;0.336;2022-12-19T11:21:30;100060.86;;;10.26;63.54
63663;BME280;49815;51.618;0.336;2022-12-19T11:24:02;100051.01;;;10.50;62.49
63663;BME280;49815;51.618;0.336;2022-12-19T11:26:27;100055.09;;;10.73;62.70
63663;BME280;49815;51.618;0.336;2022-12-19T11:28:45;100055.43;;;10.84;62.62
63663;BME280;49815;51.618;0.336;2022-12-19T11:31:19;100045.74;;;11.62;60.67
63663;BME280;49815;51.618;0.336;2022-12-19T11:33:36;100056.20;;;10.98;60.87
63663;BME280;49815;51.618;0.336;2022-12-19T11:36:02;100046.96;;;10.68;61.77
63663;BME280;49815;51.618;0.336;2022-12-19T11:38:35;100045.34;;;11.26;61.10
63663;BME280;49815;51.618;0.336;2022-12-19T11:40:55;100037.92;;;10.71;61.42
63663;BME280;49815;51.618;0.336;2022-12-19T11:43:22;100024.43;;;11.18;60.02
63663;BME280;49815;51.618;0.336;2022-12-19T11:45:49;100029.02;;;10.77;61.64
63663;BME280;49815;51.618;0.336;2022-12-19T11:48:12;100013.44;;;10.51;62.02
63663;BME280;49815;51.618;0.336;2022-12-19T11:50:38;100012.13;;;11.29;60.59
63663;BME280;49815;51.618;0.336;2022-12-19T11:53:03;100008.80;;;11.57;59.73
63663;BME280;49815;51.618;0.336;2022-12-19T11:55:25;99990.73;;;11.36;60.22
63663;BME280;49815;51.618;0.336;2022-12-19T11:57:49;99997.98;;;10.34;62.46
63663;BME280;49815;51.618;0.336;2022-12-19T12:00:17;99995.74;;;10.40;62.35
63663;BME280;49815;51.618;0.336;2022-12-19T12:02:55;99991.52;;;10.18;64.24
63663;BME280;49815;51.618;0.336;2022-12-19T12:07:34;99988.37;;;10.61;62.78
63663;BME280;49815;51.618;0.336;2022-12-19T12:09:59;100001.02;;;10.57;63.23
63663;BME280;49815;51.618;0.336;2022-12-19T12:12:25;99994.58;;;10.16;64.26
63663;BME280;49815;51.618;0.336;2022-12-19T12:14:56;99988.41;;;10.19;64.03
63663;BME280;49815;51.618;0.336;2022-12-19T12:17:25;99986.66;;;10.53;63.28
63663;BME280;49815;51.618;0.336;2022-12-19T12:19:49;99975.82;;;10.39;62.92
63663;BME280;49815;51.618;0.336;2022-12-19T12:22:12;99967.82;;;10.72;62.27
63663;BME280;49815;51.618;0.336;2022-12-19T12:24:39;99956.95;;;10.22;62.68
63663;BME280;49815;51.618;0.336;2022-12-19T12:27:01;99951.15;;;9.43;65.29
63663;BME280;49815;51.618;0.336;2022-12-19T12:29:21;99962.33;;;10.05;64.31
63663;BME280;49815;51.618;0.336;2022-12-19T12:31:55;99962.69;;;10.76;62.39
63663;BME280;49815;51.618;0.336;2022-12-19T12:34:22;99953.66;;;10.28;63.58
63663;BME280;49815;51.618;0.336;2022-12-19T12:36:42;99963.32;;;10.27;63.70
63663;BME280;49815;51.618;0.336;2022-12-19T12:39:04;99964.02;;;10.67;62.72
63663;BME280;49815;51.618;0.336;2022-12-19T12:41:31;99960.52;;;10.13;63.33
63663;BME280;49815;51.618;0.336;2022-12-19T12:44:00;99953.29;;;10.40;63.55
63663;BME280;49815;51.618;0.336;2022-12-19T12:46:22;99957.78;;;10.25;64.07
63663;BME280;49815;51.618;0.336;2022-12-19T12:48:44;99952.83;;;10.45;63.19
63663;BME280;49815;51.618;0.336;2022-12-19T12:51:07;99949.16;;;10.98;62.16
63663;BME280;49815;51.618;0.336;2022-12-19T12:53:37;99942.89;;;10.29;62.92
63663;BME280;49815;51.618;0.336;2022-12-19T12:55:59;99944.92;;;10.38;62.97
63663;BME280;49815;51.618;0.336;2022-12-19T13:03:15;99927.18;;;10.41;61.82
63663;BME280;49815;51.618;0.336;2022-12-19T13:05:51;99918.02;;;11.43;59.02
63663;BME280;49815;51.618;0.336;2022-12-19T13:10:30;99904.66;;;10.30;61.79
63663;BME280;49815;51.618;0.336;2022-12-19T13:12:59;99898.66;;;10.17;62.27